Quick Links (Output Below):   Max & Min Temps   /   Climate Reports   /   Zone Forecasts
River Forecasts   /   Forestry Forecasts   /   Aviation Forecasts   /   Radars   /   Features

Terminal Aerodrome Forecast (Harrison)

Pick a Site:
Arkadelphia | El Dorado | Fayetteville | Fort Smith | Harrison | Highfill | Hot Springs | Jonesboro
Little Rock | Monticello | Mountain Home | Pine Bluff | Texarkana
 Forecast 

KHRO 300534Z 3006/0106 12003KT P6SM SCT250
     FM301500 16005KT P6SM SCT250
     FM301700 18009KT P6SM BKN050 BKN250
     FM010000 16003KT P6SM SCT250=


 Latest METARs (Observations) 
How to Decode METARs
09Z KHRO 300853Z AUTO 28004KT 9SM CLR 14/14 A2999 RMK AO2 SLP142
         T01440144 52001
         
08Z KHRO 300753Z AUTO 00000KT 9SM CLR 16/14 A2999 RMK AO2 SLP141
         T01560144
         
07Z KHRO 300653Z AUTO 00000KT 10SM CLR 17/16 A2998 RMK AO2 SLP140
         T01670156
         
06Z KHRO 300553Z AUTO 00000KT 10SM CLR 17/16 A2998 RMK AO2 SLP140
         T01670156 10239 20167 402940139 58003
         
05Z KHRO 300453Z AUTO 11003KT 10SM CLR 18/16 A2999 RMK AO2 SLP143
         T01780156
         
04Z KHRO 300353Z AUTO 15003KT 10SM CLR 18/16 A2999 RMK AO2 SLP144
         T01780156
         
03Z KHRO 300253Z AUTO 25003KT 10SM CLR 19/16 A2999 RMK AO2 SLP144
         T01890156 50002
         
02Z KHRO 300153Z AUTO 25003KT 10SM CLR 18/17 A3000 RMK AO2 SLP148
         T01830167
         
01Z KHRO 300053Z AUTO 00000KT 10SM CLR 21/16 A2999 RMK AO2 SLP145
         T02110161
         
00Z KHRO 292353Z AUTO 21003KT 10SM CLR 23/16 A2999 RMK AO2 SLP144
         T02330161 10294 20233 56007
         
***** Today's Observations (Above) *****


Back to Main Page
http://www.srh.noaa.gov/lzk/qfcst.php

USA.gov is the U.S. government's official web portal to all federal, state and local government web resources and services.